sensor_id;sensor_type;location;lat;lon;timestamp;temperature;humidity
12901;DHT22;6518;50.930;5.344;2022-07-23T00:00:07;19.40;75.30
12901;DHT22;6518;50.930;5.344;2022-07-23T00:02:36;19.30;75.60
12901;DHT22;6518;50.930;5.344;2022-07-23T00:05:03;19.30;75.90
12901;DHT22;6518;50.930;5.344;2022-07-23T00:07:30;19.30;75.90
12901;DHT22;6518;50.930;5.344;2022-07-23T00:09:57;19.20;75.90
12901;DHT22;6518;50.930;5.344;2022-07-23T00:12:24;19.20;76.20
12901;DHT22;6518;50.930;5.344;2022-07-23T00:14:51;19.10;76.30
12901;DHT22;6518;50.930;5.344;2022-07-23T00:17:18;19.10;76.80
12901;DHT22;6518;50.930;5.344;2022-07-23T00:19:46;19.00;77.00
12901;DHT22;6518;50.930;5.344;2022-07-23T00:22:13;19.00;77.50
12901;DHT22;6518;50.930;5.344;2022-07-23T00:24:40;19.00;78.10
12901;DHT22;6518;50.930;5.344;2022-07-23T00:27:07;19.10;78.40
12901;DHT22;6518;50.930;5.344;2022-07-23T00:29:34;19.10;78.50
12901;DHT22;6518;50.930;5.344;2022-07-23T00:32:01;19.10;78.70
12901;DHT22;6518;50.930;5.344;2022-07-23T00:34:28;19.10;78.70
12901;DHT22;6518;50.930;5.344;2022-07-23T00:36:56;19.10;79.40
12901;DHT22;6518;50.930;5.344;2022-07-23T00:39:23;19.10;79.70
12901;DHT22;6518;50.930;5.344;2022-07-23T00:41:53;19.10;80.00
12901;DHT22;6518;50.930;5.344;2022-07-23T00:44:22;19.10;79.90
12901;DHT22;6518;50.930;5.344;2022-07-23T00:46:50;19.00;80.10
12901;DHT22;6518;50.930;5.344;2022-07-23T00:49:19;18.90;81.20
12901;DHT22;6518;50.930;5.344;2022-07-23T00:51:47;18.90;81.80
12901;DHT22;6518;50.930;5.344;2022-07-23T00:54:17;18.90;81.80
12901;DHT22;6518;50.930;5.344;2022-07-23T00:56:45;18.80;81.90
12901;DHT22;6518;50.930;5.344;2022-07-23T00:59:13;18.80;83.40
12901;DHT22;6518;50.930;5.344;2022-07-23T01:01:41;18.80;84.20
12901;DHT22;6518;50.930;5.344;2022-07-23T01:04:09;18.80;84.60
12901;DHT22;6518;50.930;5.344;2022-07-23T01:06:37;18.80;84.20
12901;DHT22;6518;50.930;5.344;2022-07-23T01:09:06;18.80;84.50
12901;DHT22;6518;50.930;5.344;2022-07-23T01:11:36;18.80;84.30
12901;DHT22;6518;50.930;5.344;2022-07-23T01:14:12;18.70;84.20
12901;DHT22;6518;50.930;5.344;2022-07-23T01:16:40;18.60;85.00
12901;DHT22;6518;50.930;5.344;2022-07-23T01:19:07;18.60;86.60
12901;DHT22;6518;50.930;5.344;2022-07-23T01:21:39;18.50;87.10
12901;DHT22;6518;50.930;5.344;2022-07-23T01:24:08;18.50;87.80
12901;DHT22;6518;50.930;5.344;2022-07-23T01:26:35;18.50;88.10
12901;DHT22;6518;50.930;5.344;2022-07-23T01:29:03;18.50;88.10
12901;DHT22;6518;50.930;5.344;2022-07-23T01:31:30;18.50;88.30
12901;DHT22;6518;50.930;5.344;2022-07-23T01:33:58;18.50;88.80
12901;DHT22;6518;50.930;5.344;2022-07-23T01:36:25;18.50;88.60
12901;DHT22;6518;50.930;5.344;2022-07-23T01:38:52;18.40;89.50
12901;DHT22;6518;50.930;5.344;2022-07-23T01:41:20;18.50;90.40
12901;DHT22;6518;50.930;5.344;2022-07-23T01:43:47;18.50;90.50
12901;DHT22;6518;50.930;5.344;2022-07-23T01:46:14;18.50;90.40
12901;DHT22;6518;50.930;5.344;2022-07-23T01:48:41;18.60;90.40
12901;DHT22;6518;50.930;5.344;2022-07-23T01:51:08;18.60;89.70
12901;DHT22;6518;50.930;5.344;2022-07-23T01:53:36;18.60;89.10
12901;DHT22;6518;50.930;5.344;2022-07-23T01:56:03;18.50;88.80
12901;DHT22;6518;50.930;5.344;2022-07-23T01:58:32;18.50;89.30
12901;DHT22;6518;50.930;5.344;2022-07-23T02:00:59;18.50;89.20
12901;DHT22;6518;50.930;5.344;2022-07-23T02:03:26;18.40;89.30
12901;DHT22;6518;50.930;5.344;2022-07-23T02:05:53;18.40;89.80
12901;DHT22;6518;50.930;5.344;2022-07-23T02:08:20;18.30;89.60
12901;DHT22;6518;50.930;5.344;2022-07-23T02:10:47;18.30;90.20
12901;DHT22;6518;50.930;5.344;2022-07-23T02:13:17;18.30;90.60
12901;DHT22;6518;50.930;5.344;2022-07-23T02:15:45;18.30;90.60
12901;DHT22;6518;50.930;5.344;2022-07-23T02:18:12;18.30;91.00
12901;DHT22;6518;50.930;5.344;2022-07-23T02:20:39;18.30;90.60
12901;DHT22;6518;50.930;5.344;2022-07-23T02:23:06;18.20;90.90
12901;DHT22;6518;50.930;5.344;2022-07-23T02:25:33;18.20;90.80
12901;DHT22;6518;50.930;5.344;2022-07-23T02:28:00;18.20;90.90
12901;DHT22;6518;50.930;5.344;2022-07-23T02:30:27;18.20;90.80
12901;DHT22;6518;50.930;5.344;2022-07-23T02:32:55;18.10;90.90
12901;DHT22;6518;50.930;5.344;2022-07-23T02:35:23;18.10;91.50
12901;DHT22;6518;50.930;5.344;2022-07-23T02:37:50;18.10;91.80
12901;DHT22;6518;50.930;5.344;2022-07-23T02:40:17;18.10;92.40
12901;DHT22;6518;50.930;5.344;2022-07-23T02:42:44;18.10;92.00
12901;DHT22;6518;50.930;5.344;2022-07-23T02:45:11;18.10;91.80
12901;DHT22;6518;50.930;5.344;2022-07-23T02:47:38;18.20;91.50
12901;DHT22;6518;50.930;5.344;2022-07-23T02:50:07;18.10;91.40
12901;DHT22;6518;50.930;5.344;2022-07-23T02:52:34;18.10;91.60
12901;DHT22;6518;50.930;5.344;2022-07-23T02:55:01;18.10;91.80
12901;DHT22;6518;50.930;5.344;2022-07-23T02:57:29;18.10;91.80
12901;DHT22;6518;50.930;5.344;2022-07-23T02:59:56;18.00;91.80
12901;DHT22;6518;50.930;5.344;2022-07-23T03:02:23;18.00;92.10
12901;DHT22;6518;50.930;5.344;2022-07-23T03:04:50;18.00;92.60
12901;DHT22;6518;50.930;5.344;2022-07-23T03:07:18;18.00;92.60
12901;DHT22;6518;50.930;5.344;2022-07-23T03:09:45;18.00;93.20
12901;DHT22;6518;50.930;5.344;2022-07-23T03:12:12;18.10;92.80
12901;DHT22;6518;50.930;5.344;2022-07-23T03:14:39;18.10;92.20
12901;DHT22;6518;50.930;5.344;2022-07-23T03:17:06;18.00;92.50
12901;DHT22;6518;50.930;5.344;2022-07-23T03:19:33;18.00;92.50
12901;DHT22;6518;50.930;5.344;2022-07-23T03:22:00;18.00;92.00
12901;DHT22;6518;50.930;5.344;2022-07-23T03:24:29;18.00;92.00
12901;DHT22;6518;50.930;5.344;2022-07-23T03:27:09;17.90;92.40
12901;DHT22;6518;50.930;5.344;2022-07-23T03:29:36;17.90;92.10
12901;DHT22;6518;50.930;5.344;2022-07-23T03:32:03;17.80;92.40
12901;DHT22;6518;50.930;5.344;2022-07-23T03:34:30;17.70;92.30
12901;DHT22;6518;50.930;5.344;2022-07-23T03:36:57;17.70;92.70
12901;DHT22;6518;50.930;5.344;2022-07-23T03:39:24;17.60;93.00
12901;DHT22;6518;50.930;5.344;2022-07-23T03:41:53;17.60;93.50
12901;DHT22;6518;50.930;5.344;2022-07-23T03:44:19;17.60;93.60
12901;DHT22;6518;50.930;5.344;2022-07-23T03:46:46;17.60;93.70
12901;DHT22;6518;50.930;5.344;2022-07-23T03:49:13;17.50;93.70
12901;DHT22;6518;50.930;5.344;2022-07-23T03:51:40;17.50;93.90
12901;DHT22;6518;50.930;5.344;2022-07-23T03:54:07;17.40;94.40
12901;DHT22;6518;50.930;5.344;2022-07-23T03:56:34;17.40;94.40
12901;DHT22;6518;50.930;5.344;2022-07-23T03:59:03;17.40;94.60
12901;DHT22;6518;50.930;5.344;2022-07-23T04:01:30;17.30;94.50
12901;DHT22;6518;50.930;5.344;2022-07-23T04:03:57;17.30;94.60
12901;DHT22;6518;50.930;5.344;2022-07-23T04:06:24;17.30;94.70
12901;DHT22;6518;50.930;5.344;2022-07-23T04:08:52;17.20;95.00
12901;DHT22;6518;50.930;5.344;2022-07-23T04:11:19;17.20;95.20
12901;DHT22;6518;50.930;5.344;2022-07-23T04:13:46;17.20;95.40
12901;DHT22;6518;50.930;5.344;2022-07-23T04:16:14;17.20;95.60
12901;DHT22;6518;50.930;5.344;2022-07-23T04:18:41;17.30;95.80
12901;DHT22;6518;50.930;5.344;2022-07-23T04:21:08;17.30;95.70
12901;DHT22;6518;50.930;5.344;2022-07-23T04:23:35;17.30;95.90
12901;DHT22;6518;50.930;5.344;2022-07-23T04:26:02;17.30;95.80
12901;DHT22;6518;50.930;5.344;2022-07-23T04:28:29;17.30;95.80
12901;DHT22;6518;50.930;5.344;2022-07-23T04:30:56;17.30;95.60
12901;DHT22;6518;50.930;5.344;2022-07-23T04:33:25;17.30;95.40
12901;DHT22;6518;50.930;5.344;2022-07-23T04:35:52;17.30;95.20
12901;DHT22;6518;50.930;5.344;2022-07-23T04:38:19;17.30;95.40
12901;DHT22;6518;50.930;5.344;2022-07-23T04:40:46;17.40;95.40
12901;DHT22;6518;50.930;5.344;2022-07-23T04:43:13;17.30;95.10
12901;DHT22;6518;50.930;5.344;2022-07-23T04:45:40;17.30;95.40
12901;DHT22;6518;50.930;5.344;2022-07-23T04:48:07;17.40;95.70
12901;DHT22;6518;50.930;5.344;2022-07-23T04:50:36;17.40;95.80
12901;DHT22;6518;50.930;5.344;2022-07-23T04:53:03;17.40;95.80
12901;DHT22;6518;50.930;5.344;2022-07-23T04:55:30;17.50;95.60
12901;DHT22;6518;50.930;5.344;2022-07-23T04:57:56;17.50;95.20
12901;DHT22;6518;50.930;5.344;2022-07-23T05:00:24;17.40;94.80
12901;DHT22;6518;50.930;5.344;2022-07-23T05:02:50;17.40;94.80
12901;DHT22;6518;50.930;5.344;2022-07-23T05:05:17;17.40;95.20
12901;DHT22;6518;50.930;5.344;2022-07-23T05:07:45;17.50;95.60
12901;DHT22;6518;50.930;5.344;2022-07-23T05:10:12;17.60;95.70
12901;DHT22;6518;50.930;5.344;2022-07-23T05:12:39;17.60;95.60
12901;DHT22;6518;50.930;5.344;2022-07-23T05:15:07;17.70;95.20
12901;DHT22;6518;50.930;5.344;2022-07-23T05:17:34;17.70;94.90
12901;DHT22;6518;50.930;5.344;2022-07-23T05:20:01;17.70;94.50
12901;DHT22;6518;50.930;5.344;2022-07-23T05:22:28;17.70;94.00
12901;DHT22;6518;50.930;5.344;2022-07-23T05:24:56;17.70;93.90
12901;DHT22;6518;50.930;5.344;2022-07-23T05:27:23;17.70;94.30
12901;DHT22;6518;50.930;5.344;2022-07-23T05:29:50;17.70;94.60
12901;DHT22;6518;50.930;5.344;2022-07-23T05:32:17;17.70;94.10
12901;DHT22;6518;50.930;5.344;2022-07-23T05:34:43;17.70;93.80
12901;DHT22;6518;50.930;5.344;2022-07-23T05:37:10;17.60;94.20
12901;DHT22;6518;50.930;5.344;2022-07-23T05:39:37;17.70;94.30
12901;DHT22;6518;50.930;5.344;2022-07-23T05:42:06;17.70;94.20
12901;DHT22;6518;50.930;5.344;2022-07-23T05:44:33;17.70;94.20
12901;DHT22;6518;50.930;5.344;2022-07-23T05:47:00;17.80;93.90
12901;DHT22;6518;50.930;5.344;2022-07-23T05:49:27;17.80;93.90
12901;DHT22;6518;50.930;5.344;2022-07-23T05:51:54;17.80;93.60
12901;DHT22;6518;50.930;5.344;2022-07-23T05:54:21;17.90;93.90
12901;DHT22;6518;50.930;5.344;2022-07-23T05:56:47;18.00;93.50
12901;DHT22;6518;50.930;5.344;2022-07-23T05:59:17;18.00;92.90
12901;DHT22;6518;50.930;5.344;2022-07-23T06:01:44;18.10;92.90
12901;DHT22;6518;50.930;5.344;2022-07-23T06:04:10;18.20;92.90
12901;DHT22;6518;50.930;5.344;2022-07-23T06:06:37;18.20;92.70
12901;DHT22;6518;50.930;5.344;2022-07-23T06:09:04;18.30;92.90
12901;DHT22;6518;50.930;5.344;2022-07-23T06:11:31;18.40;93.00
12901;DHT22;6518;50.930;5.344;2022-07-23T06:13:58;18.50;92.40
12901;DHT22;6518;50.930;5.344;2022-07-23T06:16:27;18.60;92.40
12901;DHT22;6518;50.930;5.344;2022-07-23T06:18:54;18.70;92.30
12901;DHT22;6518;50.930;5.344;2022-07-23T06:21:20;18.80;92.00
12901;DHT22;6518;50.930;5.344;2022-07-23T06:23:47;18.80;91.00
12901;DHT22;6518;50.930;5.344;2022-07-23T06:26:14;18.90;91.10
12901;DHT22;6518;50.930;5.344;2022-07-23T06:28:41;19.00;91.10
12901;DHT22;6518;50.930;5.344;2022-07-23T06:31:08;19.10;90.60
12901;DHT22;6518;50.930;5.344;2022-07-23T06:33:36;19.20;89.60
12901;DHT22;6518;50.930;5.344;2022-07-23T06:36:04;19.20;88.70
12901;DHT22;6518;50.930;5.344;2022-07-23T06:38:31;19.20;88.10
12901;DHT22;6518;50.930;5.344;2022-07-23T06:40:58;19.30;87.40
12901;DHT22;6518;50.930;5.344;2022-07-23T06:43:24;19.30;86.10
12901;DHT22;6518;50.930;5.344;2022-07-23T06:45:51;19.20;85.40
12901;DHT22;6518;50.930;5.344;2022-07-23T06:48:18;19.20;85.30
12901;DHT22;6518;50.930;5.344;2022-07-23T06:50:46;19.30;86.20
12901;DHT22;6518;50.930;5.344;2022-07-23T06:53:13;19.30;86.10
12901;DHT22;6518;50.930;5.344;2022-07-23T06:55:40;19.40;85.40
12901;DHT22;6518;50.930;5.344;2022-07-23T06:58:07;19.40;85.10
12901;DHT22;6518;50.930;5.344;2022-07-23T07:00:35;19.40;85.10
12901;DHT22;6518;50.930;5.344;2022-07-23T07:03:02;19.50;85.10
12901;DHT22;6518;50.930;5.344;2022-07-23T07:05:30;19.50;84.30
12901;DHT22;6518;50.930;5.344;2022-07-23T07:07:58;19.50;83.70
12901;DHT22;6518;50.930;5.344;2022-07-23T07:10:25;19.50;83.70
12901;DHT22;6518;50.930;5.344;2022-07-23T07:12:52;19.60;83.80
12901;DHT22;6518;50.930;5.344;2022-07-23T07:15:19;19.60;83.40
12901;DHT22;6518;50.930;5.344;2022-07-23T07:17:45;19.70;83.40
12901;DHT22;6518;50.930;5.344;2022-07-23T07:20:12;19.80;83.10
12901;DHT22;6518;50.930;5.344;2022-07-23T07:22:39;19.80;81.70
12901;DHT22;6518;50.930;5.344;2022-07-23T07:25:08;19.80;81.50
12901;DHT22;6518;50.930;5.344;2022-07-23T07:27:35;19.80;81.80
12901;DHT22;6518;50.930;5.344;2022-07-23T07:30:03;19.90;81.90
12901;DHT22;6518;50.930;5.344;2022-07-23T07:32:30;20.00;82.00
12901;DHT22;6518;50.930;5.344;2022-07-23T07:34:58;20.10;82.00
12901;DHT22;6518;50.930;5.344;2022-07-23T07:37:25;20.10;81.10
12901;DHT22;6518;50.930;5.344;2022-07-23T07:39:51;20.20;80.60
12901;DHT22;6518;50.930;5.344;2022-07-23T07:42:20;20.20;79.70
12901;DHT22;6518;50.930;5.344;2022-07-23T07:44:47;20.30;79.40
12901;DHT22;6518;50.930;5.344;2022-07-23T07:47:14;20.30;78.70
12901;DHT22;6518;50.930;5.344;2022-07-23T07:49:41;20.40;78.30
12901;DHT22;6518;50.930;5.344;2022-07-23T07:52:09;20.40;77.70
12901;DHT22;6518;50.930;5.344;2022-07-23T07:54:36;20.40;77.00
12901;DHT22;6518;50.930;5.344;2022-07-23T07:57:03;20.40;76.70
12901;DHT22;6518;50.930;5.344;2022-07-23T07:59:31;20.40;76.80
12901;DHT22;6518;50.930;5.344;2022-07-23T08:01:58;20.50;76.50
12901;DHT22;6518;50.930;5.344;2022-07-23T08:04:25;20.50;76.30
12901;DHT22;6518;50.930;5.344;2022-07-23T08:06:52;20.60;76.30
12901;DHT22;6518;50.930;5.344;2022-07-23T08:09:19;20.70;76.20
12901;DHT22;6518;50.930;5.344;2022-07-23T08:11:46;20.80;75.60
12901;DHT22;6518;50.930;5.344;2022-07-23T08:14:13;20.90;75.20
12901;DHT22;6518;50.930;5.344;2022-07-23T08:16:41;20.90;74.30
12901;DHT22;6518;50.930;5.344;2022-07-23T08:19:08;20.90;74.00
12901;DHT22;6518;50.930;5.344;2022-07-23T08:21:35;21.00;73.70
12901;DHT22;6518;50.930;5.344;2022-07-23T08:24:02;21.00;73.30
12901;DHT22;6518;50.930;5.344;2022-07-23T08:26:29;21.10;73.30
12901;DHT22;6518;50.930;5.344;2022-07-23T08:28:57;21.20;73.10
12901;DHT22;6518;50.930;5.344;2022-07-23T08:31:24;21.20;72.70
12901;DHT22;6518;50.930;5.344;2022-07-23T08:33:52;21.20;72.50
12901;DHT22;6518;50.930;5.344;2022-07-23T08:36:19;21.20;72.40
12901;DHT22;6518;50.930;5.344;2022-07-23T08:38:46;21.30;72.00
12901;DHT22;6518;50.930;5.344;2022-07-23T08:41:14;21.30;72.00
12901;DHT22;6518;50.930;5.344;2022-07-23T08:43:42;21.30;72.00
12901;DHT22;6518;50.930;5.344;2022-07-23T08:46:09;21.30;71.50
12901;DHT22;6518;50.930;5.344;2022-07-23T08:48:36;21.40;71.10
12901;DHT22;6518;50.930;5.344;2022-07-23T08:51:05;21.40;70.60
12901;DHT22;6518;50.930;5.344;2022-07-23T08:53:33;21.40;69.90
12901;DHT22;6518;50.930;5.344;2022-07-23T08:56:04;21.40;69.60
12901;DHT22;6518;50.930;5.344;2022-07-23T08:58:31;21.40;69.50
12901;DHT22;6518;50.930;5.344;2022-07-23T09:00:59;21.40;69.40
12901;DHT22;6518;50.930;5.344;2022-07-23T09:03:28;21.40;69.50
12901;DHT22;6518;50.930;5.344;2022-07-23T09:05:57;21.40;69.30
12901;DHT22;6518;50.930;5.344;2022-07-23T09:08:35;21.50;68.90
12901;DHT22;6518;50.930;5.344;2022-07-23T09:11:04;21.50;68.40
12901;DHT22;6518;50.930;5.344;2022-07-23T09:13:37;21.50;68.40
12901;DHT22;6518;50.930;5.344;2022-07-23T09:16:07;21.60;68.00
12901;DHT22;6518;50.930;5.344;2022-07-23T09:18:41;21.60;68.10
12901;DHT22;6518;50.930;5.344;2022-07-23T09:21:14;21.70;67.80
12901;DHT22;6518;50.930;5.344;2022-07-23T09:23:44;21.80;66.90
12901;DHT22;6518;50.930;5.344;2022-07-23T09:26:20;21.80;67.40
12901;DHT22;6518;50.930;5.344;2022-07-23T09:28:54;21.90;67.40
12901;DHT22;6518;50.930;5.344;2022-07-23T09:31:23;21.90;67.60
12901;DHT22;6518;50.930;5.344;2022-07-23T09:33:50;22.00;67.30
12901;DHT22;6518;50.930;5.344;2022-07-23T09:36:27;22.10;67.10
12901;DHT22;6518;50.930;5.344;2022-07-23T09:38:57;22.10;66.50
12901;DHT22;6518;50.930;5.344;2022-07-23T09:41:24;22.10;66.20
12901;DHT22;6518;50.930;5.344;2022-07-23T09:43:55;22.10;65.90
12901;DHT22;6518;50.930;5.344;2022-07-23T09:46:24;22.20;65.40
12901;DHT22;6518;50.930;5.344;2022-07-23T09:48:52;22.20;65.10
12901;DHT22;6518;50.930;5.344;2022-07-23T09:51:20;22.20;64.40
12901;DHT22;6518;50.930;5.344;2022-07-23T09:53:57;22.20;64.30
12901;DHT22;6518;50.930;5.344;2022-07-23T09:56:26;22.30;64.00
12901;DHT22;6518;50.930;5.344;2022-07-23T09:58:54;22.30;63.90
12901;DHT22;6518;50.930;5.344;2022-07-23T10:01:29;22.30;63.80
12901;DHT22;6518;50.930;5.344;2022-07-23T10:03:58;22.40;64.00
12901;DHT22;6518;50.930;5.344;2022-07-23T10:06:26;22.50;63.80
12901;DHT22;6518;50.930;5.344;2022-07-23T10:08:57;22.50;63.70
12901;DHT22;6518;50.930;5.344;2022-07-23T10:11:27;22.60;63.40
12901;DHT22;6518;50.930;5.344;2022-07-23T10:13:54;22.70;63.20
12901;DHT22;6518;50.930;5.344;2022-07-23T10:16:21;22.70;62.50
12901;DHT22;6518;50.930;5.344;2022-07-23T10:18:48;22.70;62.20
12901;DHT22;6518;50.930;5.344;2022-07-23T10:21:21;22.70;61.90
12901;DHT22;6518;50.930;5.344;2022-07-23T10:24:04;22.60;62.00
12901;DHT22;6518;50.930;5.344;2022-07-23T10:26:40;22.70;61.90
12901;DHT22;6518;50.930;5.344;2022-07-23T10:29:18;22.80;62.00
12901;DHT22;6518;50.930;5.344;2022-07-23T10:31:54;22.80;61.80
12901;DHT22;6518;50.930;5.344;2022-07-23T10:34:28;22.80;61.20
12901;DHT22;6518;50.930;5.344;2022-07-23T10:37:01;22.80;61.10
12901;DHT22;6518;50.930;5.344;2022-07-23T10:39:34;22.80;61.10
12901;DHT22;6518;50.930;5.344;2022-07-23T10:42:09;22.80;61.10
12901;DHT22;6518;50.930;5.344;2022-07-23T10:44:41;22.80;61.00
12901;DHT22;6518;50.930;5.344;2022-07-23T10:47:10;22.90;60.90
12901;DHT22;6518;50.930;5.344;2022-07-23T10:50:16;22.90;60.60
12901;DHT22;6518;50.930;5.344;2022-07-23T10:53:09;23.00;60.30
12901;DHT22;6518;50.930;5.344;2022-07-23T10:55:46;23.10;59.90
12901;DHT22;6518;50.930;5.344;2022-07-23T10:58:19;23.10;60.00
12901;DHT22;6518;50.930;5.344;2022-07-23T11:00:46;23.20;60.00
12901;DHT22;6518;50.930;5.344;2022-07-23T11:03:31;23.20;60.10
12901;DHT22;6518;50.930;5.344;2022-07-23T11:06:04;23.30;59.70
12901;DHT22;6518;50.930;5.344;2022-07-23T11:08:32;23.40;59.80
12901;DHT22;6518;50.930;5.344;2022-07-23T11:11:10;23.50;59.50
12901;DHT22;6518;50.930;5.344;2022-07-23T11:13:39;23.60;59.10
12901;DHT22;6518;50.930;5.344;2022-07-23T11:16:12;23.60;59.10
12901;DHT22;6518;50.930;5.344;2022-07-23T11:18:59;23.70;58.90
12901;DHT22;6518;50.930;5.344;2022-07-23T11:21:45;23.80;58.40
12901;DHT22;6518;50.930;5.344;2022-07-23T11:24:14;23.80;58.00
12901;DHT22;6518;50.930;5.344;2022-07-23T11:29:47;23.80;57.60
12901;DHT22;6518;50.930;5.344;2022-07-23T11:32:30;23.70;57.20
12901;DHT22;6518;50.930;5.344;2022-07-23T11:34:59;23.70;57.60
12901;DHT22;6518;50.930;5.344;2022-07-23T11:37:37;23.70;57.70
12901;DHT22;6518;50.930;5.344;2022-07-23T11:40:08;23.80;57.00
12901;DHT22;6518;50.930;5.344;2022-07-23T11:42:50;23.70;57.10
12901;DHT22;6518;50.930;5.344;2022-07-23T11:45:17;23.70;57.10
12901;DHT22;6518;50.930;5.344;2022-07-23T11:47:44;23.80;57.30
12901;DHT22;6518;50.930;5.344;2022-07-23T11:50:11;23.80;57.00
12901;DHT22;6518;50.930;5.344;2022-07-23T11:52:39;23.80;56.70
12901;DHT22;6518;50.930;5.344;2022-07-23T11:55:08;23.90;56.40
12901;DHT22;6518;50.930;5.344;2022-07-23T11:57:38;24.00;56.40
12901;DHT22;6518;50.930;5.344;2022-07-23T12:00:09;24.00;55.90
12901;DHT22;6518;50.930;5.344;2022-07-23T12:02:36;24.00;55.80
12901;DHT22;6518;50.930;5.344;2022-07-23T12:05:04;24.10;55.80
12901;DHT22;6518;50.930;5.344;2022-07-23T12:07:34;24.10;54.90
12901;DHT22;6518;50.930;5.344;2022-07-23T12:10:05;24.10;54.50
12901;DHT22;6518;50.930;5.344;2022-07-23T12:12:36;24.10;54.20
12901;DHT22;6518;50.930;5.344;2022-07-23T12:15:05;24.10;53.70
12901;DHT22;6518;50.930;5.344;2022-07-23T12:17:35;24.10;53.40
12901;DHT22;6518;50.930;5.344;2022-07-23T12:20:03;24.10;52.80
12901;DHT22;6518;50.930;5.344;2022-07-23T12:22:43;24.10;53.00
12901;DHT22;6518;50.930;5.344;2022-07-23T12:25:15;24.20;53.40
12901;DHT22;6518;50.930;5.344;2022-07-23T12:27:43;24.20;53.30
12901;DHT22;6518;50.930;5.344;2022-07-23T12:30:18;24.30;52.30
12901;DHT22;6518;50.930;5.344;2022-07-23T12:32:48;24.30;52.40
12901;DHT22;6518;50.930;5.344;2022-07-23T12:35:16;24.40;52.80
12901;DHT22;6518;50.930;5.344;2022-07-23T12:37:44;24.40;52.20
12901;DHT22;6518;50.930;5.344;2022-07-23T12:40:22;24.40;51.80
12901;DHT22;6518;50.930;5.344;2022-07-23T12:42:50;24.40;51.50
12901;DHT22;6518;50.930;5.344;2022-07-23T12:45:18;24.50;51.80
12901;DHT22;6518;50.930;5.344;2022-07-23T12:48:01;24.50;52.00
12901;DHT22;6518;50.930;5.344;2022-07-23T12:50:38;24.50;51.60
12901;DHT22;6518;50.930;5.344;2022-07-23T12:53:07;24.50;51.10
12901;DHT22;6518;50.930;5.344;2022-07-23T12:55:35;24.50;51.40
12901;DHT22;6518;50.930;5.344;2022-07-23T12:58:08;24.60;51.50
12901;DHT22;6518;50.930;5.344;2022-07-23T13:01:00;24.60;51.40
12901;DHT22;6518;50.930;5.344;2022-07-23T13:03:34;24.60;51.30
12901;DHT22;6518;50.930;5.344;2022-07-23T13:06:03;24.70;51.30
12901;DHT22;6518;50.930;5.344;2022-07-23T13:08:31;24.80;51.30
12901;DHT22;6518;50.930;5.344;2022-07-23T13:10:59;24.80;50.90
12901;DHT22;6518;50.930;5.344;2022-07-23T13:13:28;24.90;51.20
12901;DHT22;6518;50.930;5.344;2022-07-23T13:15:57;24.90;50.50
12901;DHT22;6518;50.930;5.344;2022-07-23T13:18:24;24.90;50.90
12901;DHT22;6518;50.930;5.344;2022-07-23T13:20:53;24.90;50.70
12901;DHT22;6518;50.930;5.344;2022-07-23T13:23:20;25.00;50.40
12901;DHT22;6518;50.930;5.344;2022-07-23T13:25:48;25.00;50.70
12901;DHT22;6518;50.930;5.344;2022-07-23T13:28:16;25.10;50.60
12901;DHT22;6518;50.930;5.344;2022-07-23T13:30:44;25.20;50.40
12901;DHT22;6518;50.930;5.344;2022-07-23T13:33:11;25.20;50.10
12901;DHT22;6518;50.930;5.344;2022-07-23T13:35:39;25.30;50.00
12901;DHT22;6518;50.930;5.344;2022-07-23T13:38:07;25.30;50.20
12901;DHT22;6518;50.930;5.344;2022-07-23T13:40:35;25.40;50.10
12901;DHT22;6518;50.930;5.344;2022-07-23T13:43:05;25.50;50.00
12901;DHT22;6518;50.930;5.344;2022-07-23T13:45:32;25.50;50.00
12901;DHT22;6518;50.930;5.344;2022-07-23T13:47:59;25.60;50.00
12901;DHT22;6518;50.930;5.344;2022-07-23T13:50:27;25.60;50.00
12901;DHT22;6518;50.930;5.344;2022-07-23T13:52:54;25.70;50.10
12901;DHT22;6518;50.930;5.344;2022-07-23T13:55:23;25.70;50.20
12901;DHT22;6518;50.930;5.344;2022-07-23T13:57:50;25.80;50.00
12901;DHT22;6518;50.930;5.344;2022-07-23T14:00:17;25.80;50.00
12901;DHT22;6518;50.930;5.344;2022-07-23T14:02:44;25.90;50.00
12901;DHT22;6518;50.930;5.344;2022-07-23T14:05:11;25.90;50.00
12901;DHT22;6518;50.930;5.344;2022-07-23T14:07:38;26.00;49.90
12901;DHT22;6518;50.930;5.344;2022-07-23T14:10:08;26.10;49.90
12901;DHT22;6518;50.930;5.344;2022-07-23T14:12:36;26.10;49.60
12901;DHT22;6518;50.930;5.344;2022-07-23T14:15:05;26.10;49.70
12901;DHT22;6518;50.930;5.344;2022-07-23T14:17:32;26.20;49.70
12901;DHT22;6518;50.930;5.344;2022-07-23T14:19:59;26.20;49.50
12901;DHT22;6518;50.930;5.344;2022-07-23T14:22:26;26.20;49.50
12901;DHT22;6518;50.930;5.344;2022-07-23T14:24:53;26.30;49.50
12901;DHT22;6518;50.930;5.344;2022-07-23T14:27:23;26.40;49.40
12901;DHT22;6518;50.930;5.344;2022-07-23T14:29:52;26.40;49.20
12901;DHT22;6518;50.930;5.344;2022-07-23T14:32:19;26.40;49.60
12901;DHT22;6518;50.930;5.344;2022-07-23T14:34:47;26.40;49.70
12901;DHT22;6518;50.930;5.344;2022-07-23T14:37:14;26.40;49.70
12901;DHT22;6518;50.930;5.344;2022-07-23T14:39:43;26.50;49.50
12901;DHT22;6518;50.930;5.344;2022-07-23T14:42:10;26.50;49.40
12901;DHT22;6518;50.930;5.344;2022-07-23T14:44:38;26.50;49.60
12901;DHT22;6518;50.930;5.344;2022-07-23T14:47:06;26.50;49.50
12901;DHT22;6518;50.930;5.344;2022-07-23T14:49:33;26.50;49.50
12901;DHT22;6518;50.930;5.344;2022-07-23T14:52:02;26.60;49.20
12901;DHT22;6518;50.930;5.344;2022-07-23T14:54:29;26.60;49.20
12901;DHT22;6518;50.930;5.344;2022-07-23T14:56:57;26.70;49.50
12901;DHT22;6518;50.930;5.344;2022-07-23T14:59:24;26.70;49.60
12901;DHT22;6518;50.930;5.344;2022-07-23T15:01:52;26.80;49.50
12901;DHT22;6518;50.930;5.344;2022-07-23T15:04:21;26.80;49.30
12901;DHT22;6518;50.930;5.344;2022-07-23T15:06:48;26.90;49.30
12901;DHT22;6518;50.930;5.344;2022-07-23T15:09:15;26.90;49.20
12901;DHT22;6518;50.930;5.344;2022-07-23T15:11:42;26.90;49.00
12901;DHT22;6518;50.930;5.344;2022-07-23T15:14:09;26.90;49.20
12901;DHT22;6518;50.930;5.344;2022-07-23T15:16:36;26.90;49.20
12901;DHT22;6518;50.930;5.344;2022-07-23T15:19:03;27.00;49.30
12901;DHT22;6518;50.930;5.344;2022-07-23T15:21:32;27.00;49.90
12901;DHT22;6518;50.930;5.344;2022-07-23T15:23:59;27.10;49.20
12901;DHT22;6518;50.930;5.344;2022-07-23T15:26:26;27.10;48.90
12901;DHT22;6518;50.930;5.344;2022-07-23T15:28:53;27.10;48.50
12901;DHT22;6518;50.930;5.344;2022-07-23T15:31:20;27.10;48.30
12901;DHT22;6518;50.930;5.344;2022-07-23T15:33:48;27.10;48.00
12901;DHT22;6518;50.930;5.344;2022-07-23T15:36:17;27.10;48.20
12901;DHT22;6518;50.930;5.344;2022-07-23T15:38:46;27.00;47.60
12901;DHT22;6518;50.930;5.344;2022-07-23T15:41:13;27.10;47.90
12901;DHT22;6518;50.930;5.344;2022-07-23T15:43:40;27.00;48.00
12901;DHT22;6518;50.930;5.344;2022-07-23T15:46:07;27.10;48.00
12901;DHT22;6518;50.930;5.344;2022-07-23T15:48:35;27.20;47.80
12901;DHT22;6518;50.930;5.344;2022-07-23T15:51:03;27.10;47.60
12901;DHT22;6518;50.930;5.344;2022-07-23T15:53:31;27.10;47.70
12901;DHT22;6518;50.930;5.344;2022-07-23T15:56:00;27.10;47.90